Terminal Aerodrome Forecast
Issued by NWS Quad Cities IA IL

Home | Current Version | Previous Version | Text Only | Print | Product List | Glossary On
Versions: 1 2 3 4 5 6 7 8 9 10 11 12 13 14 15 16 17 18 19 20 21 22 23 24 25
827
FTUS43 KDVN 290520
TAFDBQ
TAF
KDBQ 290520Z 2906/3006 25004KT P6SM SCT100
     FM291500 27012KT P6SM SCT120
     FM291800 28015G24KT P6SM BKN050
     FM300100 28007KT P6SM BKN060=

USA.gov is the U.S. government's official web portal to all federal, state and local government web resources and services.